CheckWX is a tool to help pilots better visualize weather data.  It is not intended as a substitute for an official pre-flight weather briefing.

21:02:06 UTC

KPHD METAR
Harry Clever Field Airport
New Philadelphia, Ohio, USA
Current

9 mins ago

KPHD 232053Z AUTO 12008KT 10SM OVC008 07/04 A3000 RMK AO2 SLP164 T00670044 56034
Observed
Feb-23 @ 20:53 UTC
Wind
  • 120° at 8 KTS
Visibility
10 SM
Flight Rules
IFR
Cloud Levels
  • Overcast at 800' AGL
Temperature
C / 45°F
Dewpoint
C / 39°F
Humidity
81%
Altimeter
30" Hg
Pressure
1016.4 hPa
Previous

1 hour ago

KPHD 231953Z AUTO 13009KT 10SM OVC009 06/04 A3001 RMK AO2 SLP167 T00610044
Observed
Feb-23 @ 19:53 UTC
Wind
  • 130° at 9 KTS
Visibility
10 SM
Flight Rules
IFR
Cloud Levels
  • Overcast at 900' AGL
Temperature
C / 43°F
Dewpoint
C / 39°F
Humidity
87%
Altimeter
30.01" Hg
Pressure
1016.7 hPa
Previous

2 hours ago

KPHD 231905Z AUTO 12012KT 10SM OVC014 07/03 A3004 RMK AO2 T00670028
Observed
Feb-23 @ 19:05 UTC
Wind
  • 120° at 12 KTS
Visibility
10 SM
Flight Rules
MVFR
Cloud Levels
  • Overcast at 1,400' AGL
Temperature
C / 45°F
Dewpoint
C / 37°F
Humidity
76%
Altimeter
30.04" Hg
Pressure
1017.32 hPa